Time;durP1;ratioP1;P1;durP2;ratioP2;P2;SDS_P1;SDS_P2;PMS_P1;PMS_P2;Temp;Humidity;BMP_temperature;BMP_pressure;BME280_temperature;BME280_humidity;BME280_pressure;Samples;Min_cycle;Max_cycle;Signal;HPM_P1;HPM_P2
2023/09/17 00:01:11;;;;;;;;;;;;;;;14.06;100.00;101583.03;5064525;28;20009;-90
2023/09/17 00:03:57;;;;;;;;;;;;;;;14.06;100.00;101588.34;5069369;28;20019;-90
2023/09/17 00:06:42;;;;;;;;;;;;;;;14.04;100.00;101583.09;5068865;28;19968;-90
2023/09/17 00:09:28;;;;;;;;;;;;;;;14.04;100.00;101579.53;5066176;28;20007;-91
2023/09/17 00:12:14;;;;;;;;;;;;;;;14.02;100.00;101570.78;5070225;28;19935;-91
2023/09/17 00:14:59;;;;;;;;;;;;;;;13.98;100.00;101570.06;5036911;28;19955;-90
2023/09/17 00:17:45;;;;;;;;;;;;;;;13.97;100.00;101573.69;5050572;28;19967;-89
2023/09/17 00:20:37;;;;;;;;;;;;;;;13.95;100.00;101567.56;5055547;28;19928;-90
2023/09/17 00:23:22;;;;;;;;;;;;;;;13.92;100.00;101568.56;5053001;28;20398;-90
2023/09/17 00:26:08;;;;;;;;;;;;;;;13.89;100.00;101566.03;5050926;28;19932;-90
2023/09/17 00:28:54;;;;;;;;;;;;;;;13.87;100.00;101561.72;5044663;28;20011;-89
2023/09/17 00:31:39;;;;;;;;;;;;;;;13.85;100.00;101567.16;5052245;28;19928;-92
2023/09/17 00:34:25;;;;;;;;;;;;;;;13.84;100.00;101562.75;5070174;28;19935;-90
2023/09/17 00:37:10;;;;;;;;;;;;;;;13.83;100.00;101569.00;5069136;28;19932;-90
2023/09/17 00:39:57;;;;;;;;;;;;;;;13.80;100.00;101554.06;5065870;28;19982;-91
2023/09/17 00:42:43;;;;;;;;;;;;;;;13.79;100.00;101551.47;5069915;28;19954;-91
2023/09/17 00:45:29;;;;;;;;;;;;;;;13.77;100.00;101556.84;5067660;28;19972;-91
2023/09/17 00:48:15;;;;;;;;;;;;;;;13.76;100.00;101548.94;5063731;28;20363;-92
2023/09/17 00:51:01;;;;;;;;;;;;;;;13.75;100.00;101547.22;5066462;28;19925;-90
2023/09/17 00:53:47;;;;;;;;;;;;;;;13.74;100.00;101542.84;5066772;28;19982;-90
2023/09/17 00:56:32;;;;;;;;;;;;;;;13.73;100.00;101546.44;5069051;28;20666;-91
2023/09/17 00:59:19;;;;;;;;;;;;;;;13.73;100.00;101544.63;5057054;28;20023;-91
2023/09/17 01:02:04;;;;;;;;;;;;;;;13.74;100.00;101538.38;5063074;28;19925;-89
2023/09/17 01:04:50;;;;;;;;;;;;;;;13.75;100.00;101533.91;5066071;28;19924;-91
2023/09/17 01:07:36;;;;;;;;;;;;;;;13.78;100.00;101531.13;5053509;28;21840;-90
2023/09/17 01:10:22;;;;;;;;;;;;;;;13.80;100.00;101534.56;5051126;28;19945;-91
2023/09/17 01:13:08;;;;;;;;;;;;;;;13.85;100.00;101537.88;5050718;28;19939;-90
2023/09/17 01:15:54;;;;;;;;;;;;;;;13.85;100.00;101532.56;5065958;28;19928;-92
2023/09/17 01:18:42;;;;;;;;;;;;;;;13.87;100.00;101528.00;5067341;28;19935;-90
2023/09/17 01:21:37;;;;;;;;;;;;;;;13.93;100.00;101526.84;5044726;28;20043;-90
2023/09/17 01:24:25;;;;;;;;;;;;;;;13.97;100.00;101529.28;5067634;28;19950;-90
2023/09/17 01:27:13;;;;;;;;;;;;;;;14.02;100.00;101530.84;5055698;28;20046;-90
2023/09/17 01:29:58;;;;;;;;;;;;;;;14.09;100.00;101534.94;5051120;28;19984;-89
2023/09/17 01:32:44;;;;;;;;;;;;;;;14.13;100.00;101531.19;5065097;28;19928;-89
2023/09/17 01:35:29;;;;;;;;;;;;;;;14.16;100.00;101535.50;5037367;28;19932;-91
2023/09/17 01:38:15;;;;;;;;;;;;;;;14.18;100.00;101534.50;5051657;28;19939;-90
2023/09/17 01:41:02;;;;;;;;;;;;;;;14.18;100.00;101542.50;5065349;28;19970;-90
2023/09/17 01:43:47;;;;;;;;;;;;;;;14.19;100.00;101538.88;5061535;28;20367;-89
2023/09/17 01:46:33;;;;;;;;;;;;;;;14.19;100.00;101544.22;5051193;28;19964;-88
2023/09/17 01:49:19;;;;;;;;;;;;;;;14.20;100.00;101543.25;5038084;28;19971;-89
2023/09/17 01:52:04;;;;;;;;;;;;;;;14.22;100.00;101533.38;5064782;28;20286;-90
2023/09/17 01:54:50;;;;;;;;;;;;;;;14.24;100.00;101539.53;5069323;28;20279;-89
2023/09/17 01:57:36;;;;;;;;;;;;;;;14.25;100.00;101537.69;5055999;28;19974;-90
2023/09/17 02:00:21;;;;;;;;;;;;;;;14.25;100.00;101535.03;5071967;28;19924;-88
2023/09/17 02:03:08;;;;;;;;;;;;;;;14.25;100.00;101535.91;5068205;28;20355;-90
2023/09/17 02:05:53;;;;;;;;;;;;;;;14.24;100.00;101528.88;5054530;28;19939;-89
2023/09/17 02:08:42;;;;;;;;;;;;;;;14.28;100.00;101536.69;5071320;28;19940;-89
2023/09/17 02:11:28;;;;;;;;;;;;;;;14.30;100.00;101533.00;5060823;28;19935;-89
2023/09/17 02:14:15;;;;;;;;;;;;;;;14.37;100.00;101538.88;5039413;28;20008;-89
2023/09/17 02:17:03;;;;;;;;;;;;;;;14.40;100.00;101536.06;5067369;28;19928;-89
2023/09/17 02:19:48;;;;;;;;;;;;;;;14.44;100.00;101529.63;5054890;28;19932;-88
2023/09/17 02:22:34;;;;;;;;;;;;;;;14.45;100.00;101526.06;5066894;28;20052;-88
2023/09/17 02:25:19;;;;;;;;;;;;;;;14.45;100.00;101525.19;5051397;28;19939;-90
2023/09/17 02:28:05;;;;;;;;;;;;;;;14.47;100.00;101528.63;5058248;28;19934;-89
2023/09/17 02:30:51;;;;;;;;;;;;;;;14.48;100.00;101522.34;5052712;28;19932;-90
2023/09/17 02:33:36;;;;;;;;;;;;;;;14.52;100.00;101514.16;5053056;28;19979;-90
2023/09/17 02:36:23;;;;;;;;;;;;;;;14.59;100.00;101511.16;5051818;28;20369;-90
2023/09/17 02:39:08;;;;;;;;;;;;;;;14.62;100.00;101503.00;5051407;28;20483;-89
2023/09/17 02:41:55;;;;;;;;;;;;;;;14.65;100.00;101508.16;5066730;28;20280;-89
2023/09/17 02:44:42;;;;;;;;;;;;;;;14.70;100.00;101514.09;5082585;28;19932;-89
2023/09/17 02:47:27;;;;;;;;;;;;;;;14.76;100.00;101513.81;5056293;28;19939;-88
2023/09/17 02:50:13;;;;;;;;;;;;;;;14.82;100.00;101517.97;5053246;28;19932;-90
2023/09/17 02:52:59;;;;;;;;;;;;;;;14.88;100.00;101516.78;5052421;28;19928;-89
2023/09/17 02:55:45;;;;;;;;;;;;;;;14.93;100.00;101512.94;5070708;28;20015;-91
2023/09/17 02:58:30;;;;;;;;;;;;;;;14.98;100.00;101518.00;5041821;28;20543;-90
2023/09/17 03:01:18;;;;;;;;;;;;;;;15.02;100.00;101511.59;5053363;28;19924;-91
2023/09/17 03:04:04;;;;;;;;;;;;;;;15.04;100.00;101512.34;5067427;28;20474;-91
2023/09/17 03:06:50;;;;;;;;;;;;;;;15.10;100.00;101505.84;5041285;28;19928;-91
2023/09/17 03:09:36;;;;;;;;;;;;;;;15.16;100.00;101504.63;5059566;28;19928;-89
2023/09/17 03:12:22;;;;;;;;;;;;;;;15.21;100.00;101497.25;5068371;28;19928;-91
2023/09/17 03:15:08;;;;;;;;;;;;;;;15.25;100.00;101493.47;5067518;28;19932;-87
2023/09/17 03:17:53;;;;;;;;;;;;;;;15.27;100.00;101485.38;5054954;28;19936;-88
2023/09/17 03:20:42;;;;;;;;;;;;;;;15.29;100.00;101488.81;5069153;28;19942;-89
2023/09/17 03:23:28;;;;;;;;;;;;;;;15.31;100.00;101486.94;5070001;28;19942;-92
2023/09/17 03:26:16;;;;;;;;;;;;;;;15.31;100.00;101485.13;5067163;28;21216;-91
2023/09/17 03:29:02;;;;;;;;;;;;;;;15.34;100.00;101487.63;5055801;28;19925;-91
2023/09/17 03:31:48;;;;;;;;;;;;;;;15.34;100.00;101492.97;5053263;28;20168;-88
2023/09/17 03:34:34;;;;;;;;;;;;;;;15.35;100.00;101491.16;5067191;28;19928;-89
2023/09/17 03:37:19;;;;;;;;;;;;;;;15.37;100.00;101507.06;5067258;28;19936;-90
2023/09/17 03:40:10;;;;;;;;;;;;;;;15.37;100.00;101510.63;5069883;28;19929;-88
2023/09/17 03:42:56;;;;;;;;;;;;;;;15.37;100.00;101507.94;5057872;28;20348;-89
2023/09/17 03:45:41;;;;;;;;;;;;;;;15.36;100.00;101503.53;5055709;28;20039;-91
2023/09/17 03:48:27;;;;;;;;;;;;;;;15.37;100.00;101507.06;5056379;28;19932;-90
2023/09/17 03:51:13;;;;;;;;;;;;;;;15.37;100.00;101505.28;5066963;28;19928;-90
2023/09/17 03:53:59;;;;;;;;;;;;;;;15.38;100.00;101506.13;5055752;28;19955;-89
2023/09/17 03:56:44;;;;;;;;;;;;;;;15.39;100.00;101500.72;5080457;28;19927;-91
2023/09/17 03:59:30;;;;;;;;;;;;;;;15.43;100.00;101506.75;5048716;28;19938;-89
2023/09/17 04:02:17;;;;;;;;;;;;;;;15.47;100.00;101503.81;5056426;28;19968;-91
2023/09/17 04:05:14;;;;;;;;;;;;;;;15.49;100.00;101514.41;5070569;28;20038;-90
2023/09/17 04:07:59;;;;;;;;;;;;;;;15.51;100.00;101509.84;5053488;28;20322;-90
2023/09/17 04:10:45;;;;;;;;;;;;;;;15.52;100.00;101516.88;5055366;28;19928;-90
2023/09/17 04:13:31;;;;;;;;;;;;;;;15.55;100.00;101515.84;5070424;28;19928;-90
2023/09/17 04:16:20;;;;;;;;;;;;;;;15.56;100.00;101512.25;5043457;28;19932;-89
2023/09/17 04:19:06;;;;;;;;;;;;;;;15.56;100.00;101513.13;5054499;28;19936;-90
2023/09/17 04:21:52;;;;;;;;;;;;;;;15.55;100.00;101514.06;5038205;28;20292;-91
2023/09/17 04:24:38;;;;;;;;;;;;;;;15.55;100.00;101524.72;5054710;28;19936;-91
2023/09/17 04:27:24;;;;;;;;;;;;;;;15.54;100.00;101517.69;5070636;28;19928;-92
2023/09/17 04:30:10;;;;;;;;;;;;;;;15.54;100.00;101514.13;5069601;28;21839;-90
2023/09/17 04:32:56;;;;;;;;;;;;;;;15.55;100.00;101510.53;5068386;28;19929;-89
2023/09/17 04:35:41;;;;;;;;;;;;;;;15.54;100.00;101515.00;5048970;28;19928;-90
2023/09/17 04:38:29;;;;;;;;;;;;;;;15.54;100.00;101509.69;5066630;28;20223;-89
2023/09/17 04:41:15;;;;;;;;;;;;;;;15.53;100.00;101515.94;5064832;28;20059;-88
2023/09/17 04:44:03;;;;;;;;;;;;;;;15.52;100.00;101524.88;5067229;28;19932;-90
2023/09/17 04:46:49;;;;;;;;;;;;;;;15.52;100.00;101526.72;5067235;28;19938;-89
2023/09/17 04:49:37;;;;;;;;;;;;;;;15.52;100.00;101522.22;5068540;28;19928;-88
2023/09/17 04:52:22;;;;;;;;;;;;;;;15.52;100.00;101519.56;5069155;28;20392;-90
2023/09/17 04:55:08;;;;;;;;;;;;;;;15.53;100.00;101517.75;5070318;28;19924;-89
2023/09/17 04:57:54;;;;;;;;;;;;;;;15.53;100.00;101515.94;5054839;28;19932;-90
2023/09/17 05:00:40;;;;;;;;;;;;;;;15.54;100.00;101512.34;5055205;28;19940;-92
2023/09/17 05:03:25;;;;;;;;;;;;;;;15.56;100.00;101513.13;5052843;28;19924;-91
2023/09/17 05:06:11;;;;;;;;;;;;;;;15.57;100.00;101501.47;5067437;28;19940;-90
2023/09/17 05:08:57;;;;;;;;;;;;;;;15.58;100.00;101500.53;5067704;28;19959;-91
2023/09/17 05:11:42;;;;;;;;;;;;;;;15.59;100.00;101502.25;5054608;28;19924;-90
2023/09/17 05:14:28;;;;;;;;;;;;;;;15.60;100.00;101497.78;5038917;28;19966;-91
2023/09/17 05:17:15;;;;;;;;;;;;;;;15.61;100.00;101488.81;5067460;28;20996;-90
2023/09/17 05:20:01;;;;;;;;;;;;;;;15.60;100.00;101490.63;5053079;28;19932;-90
2023/09/17 05:22:49;;;;;;;;;;;;;;;15.60;100.00;101477.28;5042265;28;19928;-86
2023/09/17 05:25:36;;;;;;;;;;;;;;;15.63;100.00;101484.25;5067341;28;20012;-87
2023/09/17 05:28:23;;;;;;;;;;;;;;;15.65;100.00;101474.38;5044589;28;19928;-89
2023/09/17 05:31:10;;;;;;;;;;;;;;;15.67;100.00;101471.59;5055007;28;19921;-87
2023/09/17 05:33:57;;;;;;;;;;;;;;;15.68;100.00;101474.19;5070103;28;19928;-89
2023/09/17 05:36:42;;;;;;;;;;;;;;;15.68;100.00;101484.84;5067779;28;19924;-90
2023/09/17 05:39:28;;;;;;;;;;;;;;;15.68;100.00;101489.34;5070734;28;19933;-90
2023/09/17 05:42:14;;;;;;;;;;;;;;;15.68;100.00;101474.19;5036739;28;19959;-91
2023/09/17 05:44:59;;;;;;;;;;;;;;;15.66;100.00;101476.09;5023581;28;20717;-90
2023/09/17 05:47:48;;;;;;;;;;;;;;;15.66;100.00;101475.22;5015646;28;20391;-90
2023/09/17 05:50:34;;;;;;;;;;;;;;;15.68;100.00;101473.34;5021681;28;19937;-88
2023/09/17 05:53:20;;;;;;;;;;;;;;;15.68;100.00;101468.84;5025194;28;20026;-91
2023/09/17 05:56:07;;;;;;;;;;;;;;;15.65;100.00;101471.72;5031995;28;20471;-89
2023/09/17 05:58:53;;;;;;;;;;;;;;;15.65;100.00;101470.84;5022059;28;21482;-90
2023/09/17 06:01:39;;;;;;;;;;;;;;;15.66;100.00;101476.09;5035231;28;19921;-87
2023/09/17 06:04:24;;;;;;;;;;;;;;;15.69;100.00;101481.25;5031590;28;19929;-88
2023/09/17 06:07:10;;;;;;;;;;;;;;;15.73;100.00;101488.13;5010335;28;19932;-90
2023/09/17 06:09:56;;;;;;;;;;;;;;;15.76;100.00;101481.75;5034275;28;19967;-90
2023/09/17 06:12:42;;;;;;;;;;;;;;;15.80;100.00;101482.44;5030686;28;19935;-89
2023/09/17 06:15:27;;;;;;;;;;;;;;;15.85;100.00;101491.91;5019064;28;19937;-88
2023/09/17 06:18:13;;;;;;;;;;;;;;;15.87;100.00;101491.81;5031980;28;19925;-90
2023/09/17 06:20:59;;;;;;;;;;;;;;;15.88;100.00;101486.41;5028967;28;20431;-88
2023/09/17 06:23:44;;;;;;;;;;;;;;;15.89;100.00;101490.78;5019032;28;19929;-91
2023/09/17 06:26:30;;;;;;;;;;;;;;;15.91;100.00;101488.00;5017491;28;19964;-90
2023/09/17 06:29:16;;;;;;;;;;;;;;;15.92;100.00;101489.78;5033370;28;19929;-91
2023/09/17 06:32:01;;;;;;;;;;;;;;;15.93;100.00;101487.97;5031097;28;19956;-86
2023/09/17 06:34:47;;;;;;;;;;;;;;;15.96;100.00;101485.97;5018705;28;20411;-90
2023/09/17 06:37:33;;;;;;;;;;;;;;;15.97;100.00;101484.19;5018972;28;19947;-90
2023/09/17 06:40:19;;;;;;;;;;;;;;;15.99;100.00;101474.25;5021290;28;20418;-90
2023/09/17 06:43:04;;;;;;;;;;;;;;;16.01;100.00;101475.00;5033745;28;22040;-90
2023/09/17 06:45:50;;;;;;;;;;;;;;;16.02;100.00;101480.28;5031085;28;19936;-88
2023/09/17 06:48:36;;;;;;;;;;;;;;;16.03;100.00;101483.81;5023689;28;20284;-90
2023/09/17 06:51:21;;;;;;;;;;;;;;;16.04;100.00;101485.53;5007614;28;20000;-91
2023/09/17 06:54:07;;;;;;;;;;;;;;;16.08;100.00;101476.38;5033029;28;20300;-90
2023/09/17 06:56:53;;;;;;;;;;;;;;;16.09;100.00;101477.25;5031723;28;20031;-90
2023/09/17 06:59:38;;;;;;;;;;;;;;;16.09;100.00;101474.56;5031762;28;19975;-89
2023/09/17 07:02:24;;;;;;;;;;;;;;;16.11;100.00;101481.56;5030920;28;19971;-91
2023/09/17 07:05:10;;;;;;;;;;;;;;;16.14;100.00;101472.50;5031645;28;19929;-90
2023/09/17 07:07:56;;;;;;;;;;;;;;;16.14;100.00;101478.69;5055705;28;19928;-89
2023/09/17 07:10:43;;;;;;;;;;;;;;;16.17;100.00;101464.28;5018000;28;19975;-88
2023/09/17 07:13:28;;;;;;;;;;;;;;;16.19;100.00;101472.22;5042558;28;19929;-91
2023/09/17 07:16:15;;;;;;;;;;;;;;;16.21;100.00;101454.28;5031874;28;19929;-90
2023/09/17 07:19:01;;;;;;;;;;;;;;;16.24;100.00;101459.47;5032856;28;19924;-90
2023/09/17 07:21:47;;;;;;;;;;;;;;;16.25;100.00;101463.84;5033211;28;19929;-90
2023/09/17 07:24:32;;;;;;;;;;;;;;;16.27;100.00;101464.59;5039285;28;21887;-90
2023/09/17 07:27:18;;;;;;;;;;;;;;;16.26;100.00;101458.41;5032907;28;20047;-90
2023/09/17 07:30:05;;;;;;;;;;;;;;;16.28;100.00;101458.31;5033672;28;19955;-88
2023/09/17 07:32:50;;;;;;;;;;;;;;;16.27;100.00;101467.28;5017876;28;20047;-90
2023/09/17 07:35:38;;;;;;;;;;;;;;;16.28;100.00;101466.31;5030037;28;19939;-89
2023/09/17 07:38:24;;;;;;;;;;;;;;;16.28;100.00;101460.97;5031242;28;20002;-90
2023/09/17 07:41:10;;;;;;;;;;;;;;;16.27;100.00;101460.13;5034276;28;20968;-86
2023/09/17 07:43:56;;;;;;;;;;;;;;;16.26;100.00;101462.88;5044289;28;19928;-87
2023/09/17 07:46:41;;;;;;;;;;;;;;;16.23;100.00;101463.94;5047069;28;19928;-88
2023/09/17 07:49:28;;;;;;;;;;;;;;;16.21;100.00;101460.50;5045781;28;20356;-87
2023/09/17 07:52:14;;;;;;;;;;;;;;;16.20;100.00;101460.59;5045705;28;19932;-87
2023/09/17 07:54:59;;;;;;;;;;;;;;;16.19;100.00;101458.88;5045349;28;19932;-88
2023/09/17 07:57:46;;;;;;;;;;;;;;;16.18;100.00;101460.66;5045189;28;19929;-86
2023/09/17 08:00:31;;;;;;;;;;;;;;;16.20;100.00;101457.91;5029658;28;19939;-86
2023/09/17 08:03:17;;;;;;;;;;;;;;;16.21;100.00;101456.94;5042595;28;19987;-88
2023/09/17 08:06:03;;;;;;;;;;;;;;;16.20;100.00;101458.78;5027678;28;19943;-87
2023/09/17 08:08:49;;;;;;;;;;;;;;;16.20;100.00;101463.25;5045231;28;20307;-86
2023/09/17 08:11:34;;;;;;;;;;;;;;;16.19;100.00;101450.84;5042757;28;19935;-87
2023/09/17 08:14:22;;;;;;;;;;;;;;;16.19;100.00;101461.53;5043817;28;19939;-86
2023/09/17 08:17:08;;;;;;;;;;;;;;;16.19;100.00;101456.19;5044164;28;19933;-86
2023/09/17 08:19:54;;;;;;;;;;;;;;;16.19;100.00;101451.72;5027210;28;20667;-86
2023/09/17 08:22:39;;;;;;;;;;;;;;;16.18;100.00;101460.66;5027910;28;20019;-87
2023/09/17 08:25:26;;;;;;;;;;;;;;;16.18;100.00;101452.66;5033474;28;20209;-87
2023/09/17 08:28:15;;;;;;;;;;;;;;;16.17;100.00;101448.25;5035672;28;19924;-87
2023/09/17 08:31:03;;;;;;;;;;;;;;;16.15;100.00;101450.19;5037368;28;20021;-88
2023/09/17 08:33:50;;;;;;;;;;;;;;;16.12;100.00;101448.53;5029647;28;19968;-89
2023/09/17 08:36:36;;;;;;;;;;;;;;;16.11;100.00;101446.84;5031887;28;20268;-90
2023/09/17 08:39:22;;;;;;;;;;;;;;;16.10;100.00;101445.13;5011809;28;20573;-86
2023/09/17 08:42:07;;;;;;;;;;;;;;;16.08;100.00;101449.66;5034054;28;19968;-85
2023/09/17 08:44:55;;;;;;;;;;;;;;;16.06;100.00;101445.41;5031468;28;19977;-87
2023/09/17 08:47:41;;;;;;;;;;;;;;;16.02;100.00;101450.06;5030530;28;19931;-86
2023/09/17 08:50:27;;;;;;;;;;;;;;;16.01;100.00;101453.66;4997576;28;19986;-85
2023/09/17 08:53:13;;;;;;;;;;;;;;;16.01;100.00;101450.97;5036098;28;19974;-89
2023/09/17 08:55:59;;;;;;;;;;;;;;;16.00;100.00;101451.94;5010069;28;19935;-89
2023/09/17 08:58:47;;;;;;;;;;;;;;;16.00;100.00;101451.94;5024486;28;19926;-87
2023/09/17 09:01:32;;;;;;;;;;;;;;;16.01;100.00;101451.84;5027120;28;21987;-89
2023/09/17 09:04:18;;;;;;;;;;;;;;;16.00;100.00;101442.13;5032728;28;19936;-87
2023/09/17 09:07:03;;;;;;;;;;;;;;;16.02;100.00;101455.41;5025287;28;20020;-89
2023/09/17 09:09:52;;;;;;;;;;;;;;;16.00;100.00;101452.81;5031332;28;19924;-87
2023/09/17 09:12:38;;;;;;;;;;;;;;;16.02;100.00;101444.72;5042597;28;20211;-88
2023/09/17 09:15:24;;;;;;;;;;;;;;;16.01;100.00;101448.31;5010288;28;19933;-90
2023/09/17 09:18:09;;;;;;;;;;;;;;;16.01;100.00;101440.31;5013895;28;20595;-89
2023/09/17 09:20:55;;;;;;;;;;;;;;;15.99;100.00;101439.53;5026078;28;19928;-87
2023/09/17 09:23:41;;;;;;;;;;;;;;;15.98;100.00;101437.81;5045025;28;20438;-88
2023/09/17 09:26:33;;;;;;;;;;;;;;;15.96;100.00;101437.06;5014390;28;20308;-88
2023/09/17 09:29:19;;;;;;;;;;;;;;;15.91;100.00;101433.75;5025733;28;19939;-85
2023/09/17 09:32:06;;;;;;;;;;;;;;;15.80;100.00;101434.41;5026070;28;19931;-83
2023/09/17 09:34:55;;;;;;;;;;;;;;;15.77;100.00;101434.56;5042203;28;19932;-87
2023/09/17 09:37:40;;;;;;;;;;;;;;;15.74;100.00;101436.47;5028113;28;20063;-87
2023/09/17 09:40:26;;;;;;;;;;;;;;;15.72;100.00;101433.03;5031069;28;19928;-84
2023/09/17 09:43:31;;;;;;;;;;;;;;;15.69;100.00;101432.34;5038034;28;19924;-85
2023/09/17 09:46:19;;;;;;;;;;;;;;;15.63;100.00;101427.38;5048211;28;19954;-86
2023/09/17 09:49:05;;;;;;;;;;;;;;;15.52;100.00;101422.66;5076067;27;19939;-82
2023/09/17 09:51:51;;;;;;;;;;;;;;;15.47;100.00;101422.88;5061627;28;19928;-83
2023/09/17 09:54:37;;;;;;;;;;;;;;;15.44;100.00;101417.75;5048089;28;20363;-84
2023/09/17 09:57:25;;;;;;;;;;;;;;;15.41;100.00;101412.59;5048588;28;19928;-83
2023/09/17 10:00:12;;;;;;;;;;;;;;;15.43;100.00;101416.88;5047341;28;21046;-82
2023/09/17 10:02:58;;;;;;;;;;;;;;;15.46;100.00;101407.84;5075751;27;19947;-82
2023/09/17 10:05:44;;;;;;;;;;;;;;;15.48;100.00;101398.78;5046129;28;20406;-84
2023/09/17 10:08:30;;;;;;;;;;;;;;;15.54;100.00;101402.06;5048589;28;20017;-84
2023/09/17 10:11:15;;;;;;;;;;;;;;;15.58;100.00;101398.28;5049594;28;19932;-85
2023/09/17 10:14:05;;;;;;;;;;;;;;;15.61;100.00;101398.97;5044911;28;20047;-84
2023/09/17 10:16:51;;;;;;;;;;;;;;;15.64;100.00;101397.06;5060257;28;19987;-83
2023/09/17 10:19:38;;;;;;;;;;;;;;;15.65;100.00;101399.66;5056407;28;19929;-85
2023/09/17 10:22:23;;;;;;;;;;;;;;;15.66;100.00;101403.16;5058303;28;19928;-85
2023/09/17 10:25:18;;;;;;;;;;;;;;;15.67;100.00;101394.19;5057221;28;19975;-87
2023/09/17 10:28:05;;;;;;;;;;;;;;;15.64;100.00;101397.06;5044659;28;20245;-87
2023/09/17 10:30:51;;;;;;;;;;;;;;;15.60;100.00;101391.88;5030209;28;19970;-88
2023/09/17 10:33:37;;;;;;;;;;;;;;;15.57;100.00;101378.72;5043275;28;20504;-88
2023/09/17 10:36:23;;;;;;;;;;;;;;;15.53;100.00;101371.84;5043301;28;20367;-87
2023/09/17 10:39:13;;;;;;;;;;;;;;;15.51;100.00;101363.06;5044498;28;20020;-89
2023/09/17 10:42:00;;;;;;;;;;;;;;;15.47;100.00;101356.19;5036812;28;20248;-93
2023/09/17 10:44:47;;;;;;;;;;;;;;;15.44;100.00;101351.03;5064052;28;19928;-91
2023/09/17 10:47:33;;;;;;;;;;;;;;;15.41;100.00;101345.91;5042311;28;19995;-90
2023/09/17 10:50:19;;;;;;;;;;;;;;;15.42;100.00;101334.28;5058534;28;19920;-86
2023/09/17 10:53:07;;;;;;;;;;;;;;;15.47;100.00;101332.16;5057404;28;19943;-87
2023/09/17 10:56:11;;;;;;;;;;;;;;;15.53;100.00;101326.47;5042529;28;19928;-87
2023/09/17 10:58:57;;;;;;;;;;;;;;;15.58;100.00;101324.41;5043926;28;20018;-88
2023/09/17 11:01:42;;;;;;;;;;;;;;;15.68;100.00;101329.22;5058264;28;20529;-87
2023/09/17 11:04:28;;;;;;;;;;;;;;;15.76;100.00;101329.63;5033767;28;20399;-88
2023/09/17 11:07:14;;;;;;;;;;;;;;;15.82;100.00;101325.72;5055731;28;20261;-87
2023/09/17 11:10:03;;;;;;;;;;;;;;;15.92;100.00;101326.03;5035405;28;20976;-87
2023/09/17 11:12:49;;;;;;;;;;;;;;;15.98;100.00;101310.53;5041558;28;21971;-88
2023/09/17 11:15:34;;;;;;;;;;;;;;;16.02;100.00;101314.72;5052755;28;20401;-85
2023/09/17 11:18:20;;;;;;;;;;;;;;;16.06;100.00;101320.72;5039605;28;20585;-82
2023/09/17 11:21:12;;;;;;;;;;;;;;;16.07;100.00;101319.75;5053483;28;19971;-83
2023/09/17 11:23:58;;;;;;;;;;;;;;;16.11;100.00;101321.31;5043210;28;19934;-83
2023/09/17 11:26:47;;;;;;;;;;;;;;;16.14;100.00;101320.25;5041464;28;20781;-82
2023/09/17 11:29:39;;;;;;;;;;;;;;;16.15;100.00;101322.84;5053163;28;19939;-82
2023/09/17 11:32:25;;;;;;;;;;;;;;;16.19;100.00;101318.16;5038984;28;19928;-82
2023/09/17 11:35:11;;;;;;;;;;;;;;;16.20;100.00;101322.56;5054581;28;20436;-81
2023/09/17 11:37:57;;;;;;;;;;;;;;;16.25;100.00;101323.09;5025812;28;19929;-82
2023/09/17 11:40:43;;;;;;;;;;;;;;;16.30;100.00;101314.84;5052624;28;19928;-83
2023/09/17 11:43:29;;;;;;;;;;;;;;;16.33;100.00;101311.94;5024898;28;19955;-85
2023/09/17 11:46:14;;;;;;;;;;;;;;;16.39;100.00;101314.25;5040355;28;19961;-85
2023/09/17 11:49:01;;;;;;;;;;;;;;;16.40;100.00;101320.47;5041766;28;20401;-85
2023/09/17 11:51:47;;;;;;;;;;;;;;;16.41;100.00;101309.66;5058667;28;20383;-83
2023/09/17 11:54:54;;;;;;;;;;;;;;;16.41;100.00;101300.78;5044076;28;19932;-88
2023/09/17 11:57:40;;;;;;;;;;;;;;;16.41;100.00;101306.97;5057898;28;19928;-84
2023/09/17 12:00:29;;;;;;;;;;;;;;;16.41;100.00;101304.31;5055246;28;19928;-87
2023/09/17 12:03:16;;;;;;;;;;;;;;;16.46;100.00;101289.81;5055969;28;19954;-86
2023/09/17 12:06:04;;;;;;;;;;;;;;;16.53;100.00;101299.16;5043269;28;19931;-87
2023/09/17 12:08:50;;;;;;;;;;;;;;;16.55;100.00;101305.25;5041122;28;19935;-86
2023/09/17 12:11:36;;;;;;;;;;;;;;;16.56;100.00;101304.28;5041686;28;19933;-85
2023/09/17 12:14:22;;;;;;;;;;;;;;;16.55;100.00;101302.56;5037978;28;20340;-87
2023/09/17 12:17:07;;;;;;;;;;;;;;;16.54;100.00;101299.06;5040495;28;20019;-85
2023/09/17 12:20:12;;;;;;;;;;;;;;;16.55;100.00;101294.56;5054694;28;19928;-84
2023/09/17 12:23:02;;;;;;;;;;;;;;;16.57;100.00;101271.28;5056033;28;20482;-84
2023/09/17 12:25:48;;;;;;;;;;;;;;;16.63;100.00;101275.38;5056084;28;19928;-84
2023/09/17 12:28:34;;;;;;;;;;;;;;;16.72;100.00;101263.22;5053374;28;19932;-83
2023/09/17 12:31:19;;;;;;;;;;;;;;;16.86;100.00;101252.50;5056941;28;19970;-85
2023/09/17 12:34:05;;;;;;;;;;;;;;;17.00;100.00;101266.75;5038698;28;20158;-82
2023/09/17 12:36:51;;;;;;;;;;;;;;;17.14;100.00;101252.50;5029578;28;19932;-85
2023/09/17 12:39:37;;;;;;;;;;;;;;;17.20;100.00;101260.97;5038913;28;19967;-79
2023/09/17 12:42:23;;;;;;;;;;;;;;;17.26;100.00;101253.50;5051978;28;19935;-82
2023/09/17 12:45:08;;;;;;;;;;;;;;;17.29;100.00;101253.28;5038191;28;19932;-80
2023/09/17 12:47:54;;;;;;;;;;;;;;;17.37;100.00;101261.66;5051419;28;20018;-80
2023/09/17 12:50:42;;;;;;;;;;;;;;;17.45;100.00;101248.63;5038637;28;19924;-82
2023/09/17 12:53:29;;;;;;;;;;;;;;;17.53;100.00;101239.22;5053597;28;20440;-80
2023/09/17 12:56:14;;;;;;;;;;;;;;;17.60;100.00;101235.97;5055291;28;19928;-81
2023/09/17 12:59:00;;;;;;;;;;;;;;;17.65;100.00;101230.31;5038107;28;19924;-81
2023/09/17 13:01:50;;;;;;;;;;;;;;;17.72;100.00;101239.66;5053964;28;20018;-83
2023/09/17 13:04:41;;;;;;;;;;;;;;;17.79;100.00;101245.41;5056721;28;19932;-79
2023/09/17 13:07:27;;;;;;;;;;;;;;;17.83;100.00;101249.59;5056999;28;20532;-81
2023/09/17 13:10:13;;;;;;;;;;;;;;;17.84;100.00;101237.06;5058971;28;20403;-82
2023/09/17 13:13:03;;;;;;;;;;;;;;;17.89;100.00;101245.63;5052994;28;20025;-81
2023/09/17 13:15:49;;;;;;;;;;;;;;;17.89;100.00;101241.16;5043678;28;19932;-81
2023/09/17 13:18:34;;;;;;;;;;;;;;;17.88;100.00;101235.88;5041355;28;19936;-81
2023/09/17 13:21:20;;;;;;;;;;;;;;;17.86;100.00;101235.16;5055874;28;20469;-81
2023/09/17 13:24:09;;;;;;;;;;;;;;;17.84;100.00;101237.94;5041876;28;20402;-79
2023/09/17 13:26:58;;;;;;;;;;;;;;;17.86;100.00;101235.16;5045124;28;20006;-80
2023/09/17 13:29:46;;;;;;;;;;;;;;;17.86;100.00;101235.16;5038115;28;20129;-81
2023/09/17 13:32:32;;;;;;;;;;;;;;;17.85;100.00;101234.28;5055297;28;19956;-81
2023/09/17 13:35:18;;;;;;;;;;;;;;;17.86;100.00;101224.44;5038987;28;19932;-79
2023/09/17 13:38:04;;;;;;;;;;;;;;;17.85;100.00;101231.59;5037528;28;19955;-81
2023/09/17 13:40:50;;;;;;;;;;;;;;;17.85;100.00;101234.28;5043055;28;19925;-81
2023/09/17 13:43:36;;;;;;;;;;;;;;;17.86;100.00;101244.03;5055308;28;20403;-81
2023/09/17 13:46:24;;;;;;;;;;;;;;;17.88;100.00;101243.91;5043063;28;19932;-82
2023/09/17 13:49:10;;;;;;;;;;;;;;;17.89;100.00;101235.78;5059111;28;20050;-80
2023/09/17 13:51:56;;;;;;;;;;;;;;;17.88;100.00;101225.19;5048412;28;20050;-82
2023/09/17 13:54:42;;;;;;;;;;;;;;;17.89;100.00;101230.44;5042698;28;19940;-81
2023/09/17 13:57:28;;;;;;;;;;;;;;;17.91;100.00;101224.94;5044632;28;20437;-82
2023/09/17 14:00:14;;;;;;;;;;;;;;;17.91;100.00;101219.59;5059636;28;20067;-82
2023/09/17 14:03:01;;;;;;;;;;;;;;;17.91;100.00;101227.63;5057035;28;20038;-80
2023/09/17 14:05:47;;;;;;;;;;;;;;;17.90;100.00;101221.44;5060141;28;21150;-82